Time;durP1;ratioP1;P1;durP2;ratioP2;P2;SDS_P1;SDS_P2;PMS_P1;PMS_P2;Temp;Humidity;BMP_temperature;BMP_pressure;BME280_temperature;BME280_humidity;BME280_pressure;Samples;Min_cycle;Max_cycle;Signal;HPM_P1;HPM_P2
2023/09/29 00:00:17;;;;;;;26.30;13.77;;;;;;;;;;5085707;28;20316;-64
2023/09/29 00:02:44;;;;;;;28.65;13.80;;;;;;;;;;5081728;28;20228;-64
2023/09/29 00:05:14;;;;;;;23.15;11.93;;;;;;;;;;5087033;28;20260;-64
2023/09/29 00:07:40;;;;;;;26.63;11.50;;;;;;;;;;5083230;28;20199;-64
2023/09/29 00:10:09;;;;;;;22.50;11.90;;;;;;;;;;5085462;28;20666;-64
2023/09/29 00:12:36;;;;;;;26.50;13.40;;;;;;;;;;5083368;28;20195;-64
2023/09/29 00:15:04;;;;;;;29.90;13.75;;;;;;;;;;5083939;28;20188;-64
2023/09/29 00:17:30;;;;;;;24.85;13.25;;;;;;;;;;5086623;28;20262;-64
2023/09/29 00:19:55;;;;;;;24.60;13.60;;;;;;;;;;5076498;28;20714;-63
2023/09/29 00:22:21;;;;;;;32.35;14.25;;;;;;;;;;5087201;28;20212;-63
2023/09/29 00:24:46;;;;;;;28.48;16.27;;;;;;;;;;5083161;28;20228;-63
2023/09/29 00:27:11;;;;;;;28.35;15.73;;;;;;;;;;5085341;28;20192;-63
2023/09/29 00:29:38;;;;;;;33.45;16.00;;;;;;;;;;5081787;28;20195;-63
2023/09/29 00:32:03;;;;;;;22.63;12.43;;;;;;;;;;5101964;28;20184;-63
2023/09/29 00:34:28;;;;;;;24.48;14.50;;;;;;;;;;5086765;28;20200;-63
2023/09/29 00:36:54;;;;;;;25.02;14.88;;;;;;;;;;5089407;28;20647;-63
2023/09/29 00:39:19;;;;;;;30.40;15.25;;;;;;;;;;5093636;28;20230;-63
2023/09/29 00:41:45;;;;;;;25.35;13.52;;;;;;;;;;5089099;28;20204;-63
2023/09/29 00:44:11;;;;;;;24.73;14.48;;;;;;;;;;5087752;28;20203;-63
2023/09/29 00:46:37;;;;;;;27.27;14.80;;;;;;;;;;5093343;28;20192;-63
2023/09/29 00:49:04;;;;;;;27.70;15.05;;;;;;;;;;5096220;28;20196;-63
2023/09/29 00:51:30;;;;;;;28.20;15.32;;;;;;;;;;5093465;28;20184;-64
2023/09/29 00:53:57;;;;;;;32.50;16.20;;;;;;;;;;5082089;28;20614;-63
2023/09/29 00:56:23;;;;;;;25.75;14.40;;;;;;;;;;5099414;28;20290;-63
2023/09/29 00:58:49;;;;;;;23.40;13.73;;;;;;;;;;5093745;28;20195;-64
2023/09/29 01:01:14;;;;;;;31.83;16.10;;;;;;;;;;5091237;28;20219;-63
2023/09/29 01:03:40;;;;;;;22.65;14.68;;;;;;;;;;5094943;28;20310;-64
2023/09/29 01:06:08;;;;;;;28.42;15.18;;;;;;;;;;5097317;28;20610;-63
2023/09/29 01:08:35;;;;;;;23.70;15.48;;;;;;;;;;5093901;28;20240;-64
2023/09/29 01:11:04;;;;;;;30.63;15.68;;;;;;;;;;5094858;28;20581;-63
2023/09/29 01:13:30;;;;;;;28.20;16.10;;;;;;;;;;5091677;28;20199;-63
2023/09/29 01:15:57;;;;;;;27.90;16.17;;;;;;;;;;5099757;28;20199;-63
2023/09/29 01:18:23;;;;;;;23.52;14.52;;;;;;;;;;5092620;28;20599;-63
2023/09/29 01:20:48;;;;;;;30.48;16.08;;;;;;;;;;5091572;28;20212;-63
2023/09/29 01:23:14;;;;;;;31.45;15.52;;;;;;;;;;5094811;28;20212;-63
2023/09/29 01:25:40;;;;;;;28.05;15.93;;;;;;;;;;5090922;28;20553;-65
2023/09/29 01:28:07;;;;;;;31.35;17.95;;;;;;;;;;5087147;28;20205;-63
2023/09/29 01:30:33;;;;;;;22.33;15.30;;;;;;;;;;5090557;28;20659;-63
2023/09/29 01:32:59;;;;;;;26.60;17.40;;;;;;;;;;5091798;28;20211;-63
2023/09/29 01:35:25;;;;;;;33.03;18.15;;;;;;;;;;5090605;28;20235;-64
2023/09/29 01:37:53;;;;;;;29.15;17.90;;;;;;;;;;5082959;28;20264;-63
2023/09/29 01:40:22;;;;;;;32.15;18.75;;;;;;;;;;5096004;28;20760;-63
2023/09/29 01:42:49;;;;;;;35.05;18.73;;;;;;;;;;5090688;28;20565;-64
2023/09/29 01:45:15;;;;;;;28.60;18.10;;;;;;;;;;5089491;28;20655;-64
2023/09/29 01:47:43;;;;;;;25.23;15.25;;;;;;;;;;5091812;28;20212;-63
2023/09/29 01:50:10;;;;;;;28.05;17.38;;;;;;;;;;5090171;28;20271;-63
2023/09/29 01:52:36;;;;;;;28.02;16.55;;;;;;;;;;5092614;28;20189;-63
2023/09/29 01:55:05;;;;;;;30.75;15.02;;;;;;;;;;5090202;28;20297;-63
2023/09/29 01:57:30;;;;;;;23.95;15.27;;;;;;;;;;5095939;28;20195;-63
2023/09/29 01:59:55;;;;;;;28.77;16.38;;;;;;;;;;5089589;28;20567;-63
2023/09/29 02:02:21;;;;;;;25.45;14.90;;;;;;;;;;5090478;28;20232;-63
2023/09/29 02:04:47;;;;;;;33.15;17.17;;;;;;;;;;5088887;28;20627;-63
2023/09/29 02:07:13;;;;;;;31.52;17.75;;;;;;;;;;5071875;28;20509;-63
2023/09/29 02:09:39;;;;;;;24.52;15.57;;;;;;;;;;5079085;28;20536;-63
2023/09/29 02:12:06;;;;;;;24.65;16.13;;;;;;;;;;5087462;28;20186;-63
2023/09/29 02:14:31;;;;;;;23.60;15.80;;;;;;;;;;5093302;28;20274;-63
2023/09/29 02:16:58;;;;;;;20.27;14.05;;;;;;;;;;5093675;28;20287;-63
2023/09/29 02:19:23;;;;;;;22.05;15.68;;;;;;;;;;5088234;28;20196;-63
2023/09/29 02:21:49;;;;;;;24.40;17.17;;;;;;;;;;5085234;28;20266;-63
2023/09/29 02:24:14;;;;;;;28.45;16.85;;;;;;;;;;5088379;28;20646;-63
2023/09/29 02:26:41;;;;;;;29.50;15.93;;;;;;;;;;5090852;28;20196;-63
2023/09/29 02:29:07;;;;;;;33.30;17.25;;;;;;;;;;5078901;28;20628;-63
2023/09/29 02:31:33;;;;;;;30.20;16.52;;;;;;;;;;5089981;28;20188;-63
2023/09/29 02:33:58;;;;;;;23.92;17.08;;;;;;;;;;5092120;28;20188;-63
2023/09/29 02:36:23;;;;;;;28.33;17.67;;;;;;;;;;5088349;28;20609;-63
2023/09/29 02:38:49;;;;;;;28.95;17.67;;;;;;;;;;5095976;28;20199;-64
2023/09/29 02:41:14;;;;;;;27.52;16.40;;;;;;;;;;5088174;28;20188;-63
2023/09/29 02:43:40;;;;;;;27.38;16.90;;;;;;;;;;5101108;28;20634;-63
2023/09/29 02:46:12;;;;;;;32.70;17.35;;;;;;;;;;5090615;28;20196;-63
2023/09/29 02:48:37;;;;;;;23.33;15.68;;;;;;;;;;5089804;28;20192;-63
2023/09/29 02:51:02;;;;;;;30.35;16.90;;;;;;;;;;5086857;28;20194;-63
2023/09/29 02:53:28;;;;;;;24.35;15.75;;;;;;;;;;5086293;28;20245;-64
2023/09/29 02:55:53;;;;;;;24.42;15.98;;;;;;;;;;5088590;28;20268;-63
2023/09/29 02:58:19;;;;;;;25.85;15.90;;;;;;;;;;5088495;28;20237;-63
2023/09/29 03:00:45;;;;;;;25.38;15.13;;;;;;;;;;5085528;28;20204;-63
2023/09/29 03:03:12;;;;;;;25.48;15.10;;;;;;;;;;5087013;28;20242;-64
2023/09/29 03:05:43;;;;;;;25.48;14.38;;;;;;;;;;5087547;28;20720;-64
2023/09/29 03:08:08;;;;;;;26.70;14.88;;;;;;;;;;5088191;28;20192;-63
2023/09/29 03:10:33;;;;;;;23.27;14.93;;;;;;;;;;5088876;28;20207;-63
2023/09/29 03:12:59;;;;;;;23.20;14.88;;;;;;;;;;5086839;28;20277;-63
2023/09/29 03:15:25;;;;;;;20.90;13.73;;;;;;;;;;5083867;28;20218;-63
2023/09/29 03:17:50;;;;;;;16.67;10.63;;;;;;;;;;5083858;28;20257;-63
2023/09/29 03:20:16;;;;;;;21.75;12.43;;;;;;;;;;5079479;28;20277;-64
2023/09/29 03:22:45;;;;;;;21.15;12.45;;;;;;;;;;5083623;28;20212;-63
2023/09/29 03:25:16;;;;;;;18.60;11.93;;;;;;;;;;5087487;28;20622;-63
2023/09/29 03:27:42;;;;;;;18.27;11.02;;;;;;;;;;5084254;28;20191;-64
2023/09/29 03:30:09;;;;;;;16.98;10.65;;;;;;;;;;5085360;28;20248;-64
2023/09/29 03:32:34;;;;;;;20.70;11.23;;;;;;;;;;5087946;28;20586;-63
2023/09/29 03:35:00;;;;;;;18.73;10.90;;;;;;;;;;5087786;28;20188;-64
2023/09/29 03:37:27;;;;;;;22.80;10.45;;;;;;;;;;5081063;28;20527;-64
2023/09/29 03:39:53;;;;;;;15.50;9.90;;;;;;;;;;5098264;28;20204;-65
2023/09/29 03:42:20;;;;;;;15.45;9.60;;;;;;;;;;5086453;28;20211;-64
2023/09/29 03:44:45;;;;;;;12.48;8.95;;;;;;;;;;5089079;28;20646;-64
2023/09/29 03:47:12;;;;;;;17.02;9.13;;;;;;;;;;5090396;28;20195;-64
2023/09/29 03:49:38;;;;;;;13.85;8.88;;;;;;;;;;5091906;28;20187;-64
2023/09/29 03:52:06;;;;;;;12.63;8.38;;;;;;;;;;5085423;28;20698;-64
2023/09/29 03:54:31;;;;;;;15.85;8.63;;;;;;;;;;5088507;28;20187;-64
2023/09/29 03:56:57;;;;;;;14.43;8.65;;;;;;;;;;5083970;28;20184;-64
2023/09/29 03:59:24;;;;;;;15.32;8.70;;;;;;;;;;5081999;28;20693;-64
2023/09/29 04:01:49;;;;;;;12.80;8.05;;;;;;;;;;5076158;28;20278;-64
2023/09/29 04:04:14;;;;;;;12.98;8.10;;;;;;;;;;5085633;28;20642;-64
2023/09/29 04:06:40;;;;;;;14.18;8.60;;;;;;;;;;5090096;28;20206;-64
2023/09/29 04:09:05;;;;;;;13.35;8.32;;;;;;;;;;5088851;28;20675;-64
2023/09/29 04:11:31;;;;;;;16.35;8.13;;;;;;;;;;5080634;28;20230;-64
2023/09/29 04:13:56;;;;;;;14.48;7.93;;;;;;;;;;5071915;28;20231;-64
2023/09/29 04:16:21;;;;;;;15.23;8.32;;;;;;;;;;5078914;28;20184;-64
2023/09/29 04:18:47;;;;;;;13.32;7.75;;;;;;;;;;5080487;28;20242;-64
2023/09/29 04:21:14;;;;;;;15.35;7.35;;;;;;;;;;5089221;28;20195;-64
2023/09/29 04:23:40;;;;;;;14.85;7.15;;;;;;;;;;5083815;28;20204;-65
2023/09/29 04:26:18;;;;;;;12.63;7.20;;;;;;;;;;5091155;28;20233;-64
2023/09/29 04:28:44;;;;;;;17.55;7.45;;;;;;;;;;5091269;28;20282;-64
2023/09/29 04:31:10;;;;;;;12.60;6.78;;;;;;;;;;5102998;28;20267;-64
2023/09/29 04:33:36;;;;;;;13.32;7.13;;;;;;;;;;5099032;28;20183;-64
2023/09/29 04:36:01;;;;;;;11.73;6.65;;;;;;;;;;5091912;28;20537;-64
2023/09/29 04:38:27;;;;;;;12.43;6.93;;;;;;;;;;5093313;28;20184;-65
2023/09/29 04:40:52;;;;;;;11.07;6.10;;;;;;;;;;5094029;28;20233;-64
2023/09/29 04:43:18;;;;;;;10.02;6.43;;;;;;;;;;5093227;28;20200;-65
2023/09/29 04:45:43;;;;;;;10.48;6.07;;;;;;;;;;5105970;28;20195;-64
2023/09/29 04:48:09;;;;;;;9.80;5.65;;;;;;;;;;5106197;28;20183;-64
2023/09/29 04:50:34;;;;;;;12.20;6.18;;;;;;;;;;5092242;28;20184;-64
2023/09/29 04:53:00;;;;;;;8.88;6.13;;;;;;;;;;5100061;28;20214;-64
2023/09/29 04:55:27;;;;;;;10.82;5.75;;;;;;;;;;5091889;28;20192;-64
2023/09/29 04:57:54;;;;;;;9.75;5.22;;;;;;;;;;5091354;28;20215;-65
2023/09/29 05:00:20;;;;;;;11.50;5.70;;;;;;;;;;5093405;28;20221;-64
2023/09/29 05:02:46;;;;;;;10.07;5.60;;;;;;;;;;5082402;28;20691;-64
2023/09/29 05:05:11;;;;;;;9.27;6.03;;;;;;;;;;5088573;28;20601;-64
2023/09/29 05:07:36;;;;;;;8.90;5.55;;;;;;;;;;5079205;28;20562;-64
2023/09/29 05:10:03;;;;;;;14.48;5.53;;;;;;;;;;5090560;28;20271;-64
2023/09/29 05:12:30;;;;;;;7.88;5.13;;;;;;;;;;5086210;28;20573;-64
2023/09/29 05:14:55;;;;;;;11.73;5.47;;;;;;;;;;5096796;28;20191;-64
2023/09/29 05:17:21;;;;;;;15.05;5.35;;;;;;;;;;5087079;28;20198;-64
2023/09/29 05:19:46;;;;;;;7.07;5.28;;;;;;;;;;5077178;28;20249;-64
2023/09/29 05:22:11;;;;;;;10.77;5.82;;;;;;;;;;5087317;28;20216;-64
2023/09/29 05:24:37;;;;;;;7.75;4.57;;;;;;;;;;5086649;28;20608;-64
2023/09/29 05:27:02;;;;;;;8.73;5.30;;;;;;;;;;4367203;28;10000731;-64
2023/09/29 05:29:28;;;;;;;8.80;4.80;;;;;;;;;;5085950;28;20688;-63
2023/09/29 05:31:53;;;;;;;8.18;5.00;;;;;;;;;;5067352;28;20253;-64
2023/09/29 05:34:19;;;;;;;9.80;5.32;;;;;;;;;;5092949;28;20214;-63
2023/09/29 05:36:45;;;;;;;11.63;5.65;;;;;;;;;;5088315;28;20195;-63
2023/09/29 05:39:11;;;;;;;8.65;4.95;;;;;;;;;;5096873;28;20196;-63
2023/09/29 05:41:37;;;;;;;8.50;4.80;;;;;;;;;;5078807;28;20563;-63
2023/09/29 05:44:02;;;;;;;7.05;4.65;;;;;;;;;;5071171;28;20189;-63
2023/09/29 05:46:28;;;;;;;8.85;5.07;;;;;;;;;;5077403;28;20630;-63
2023/09/29 05:48:53;;;;;;;8.57;5.07;;;;;;;;;;5084498;28;20184;-63
2023/09/29 05:51:19;;;;;;;7.60;4.70;;;;;;;;;;5087282;28;20227;-64
2023/09/29 05:53:45;;;;;;;7.80;4.50;;;;;;;;;;5091746;28;20212;-63
2023/09/29 05:56:11;;;;;;;7.93;4.55;;;;;;;;;;5084371;28;20531;-64
2023/09/29 05:58:37;;;;;;;8.15;4.38;;;;;;;;;;5087075;28;20202;-64
2023/09/29 06:01:13;;;;;;;9.30;4.28;;;;;;;;;;5089218;28;20207;-64
2023/09/29 06:03:40;;;;;;;6.38;3.97;;;;;;;;;;5075216;28;20228;-63
2023/09/29 06:06:09;;;;;;;9.02;3.83;;;;;;;;;;5098685;28;20369;-64
2023/09/29 06:08:36;;;;;;;7.88;3.90;;;;;;;;;;5085401;28;20267;-64
2023/09/29 06:11:02;;;;;;;7.30;4.22;;;;;;;;;;5085169;28;20712;-64
2023/09/29 06:13:27;;;;;;;8.20;4.28;;;;;;;;;;5075360;28;20247;-64
2023/09/29 06:15:53;;;;;;;9.43;3.80;;;;;;;;;;5071326;28;20329;-64
2023/09/29 06:18:18;;;;;;;10.10;4.05;;;;;;;;;;5089952;28;20191;-63
2023/09/29 06:20:43;;;;;;;9.18;3.50;;;;;;;;;;5089391;28;20192;-64
2023/09/29 06:23:09;;;;;;;7.85;4.18;;;;;;;;;;5089438;28;20301;-64
2023/09/29 06:25:34;;;;;;;5.63;3.22;;;;;;;;;;5085807;28;20188;-64
2023/09/29 06:28:00;;;;;;;7.32;3.35;;;;;;;;;;5088303;28;20191;-65
2023/09/29 06:30:25;;;;;;;5.22;3.08;;;;;;;;;;5084024;28;20204;-63
2023/09/29 06:32:51;;;;;;;6.78;3.30;;;;;;;;;;5077666;28;20188;-63
2023/09/29 06:35:16;;;;;;;5.20;3.50;;;;;;;;;;5084671;28;20317;-64
2023/09/29 06:37:42;;;;;;;8.18;3.67;;;;;;;;;;5087096;28;20565;-63
2023/09/29 06:40:11;;;;;;;7.60;3.42;;;;;;;;;;5085628;28;20426;-64
2023/09/29 06:42:37;;;;;;;5.22;3.08;;;;;;;;;;5082002;28;20323;-63
2023/09/29 06:45:05;;;;;;;7.10;3.28;;;;;;;;;;5073103;28;20531;-64
2023/09/29 06:47:30;;;;;;;6.78;3.50;;;;;;;;;;5085039;28;20200;-65
2023/09/29 06:49:55;;;;;;;5.43;2.92;;;;;;;;;;5089657;28;20606;-65
2023/09/29 06:52:21;;;;;;;4.68;3.17;;;;;;;;;;5092021;28;20206;-65
2023/09/29 06:54:46;;;;;;;6.57;3.35;;;;;;;;;;5088266;28;20403;-65
2023/09/29 06:57:12;;;;;;;6.53;3.33;;;;;;;;;;5086979;28;20226;-65
2023/09/29 06:59:37;;;;;;;6.40;3.40;;;;;;;;;;5089422;28;20275;-66
2023/09/29 07:02:03;;;;;;;6.05;3.10;;;;;;;;;;5089134;28;20232;-65
2023/09/29 07:04:28;;;;;;;6.65;3.22;;;;;;;;;;5084991;28;20242;-65
2023/09/29 07:06:54;;;;;;;7.30;3.28;;;;;;;;;;5080545;28;20192;-66
2023/09/29 07:09:19;;;;;;;9.45;3.20;;;;;;;;;;5083975;28;20647;-64
2023/09/29 07:11:44;;;;;;;7.53;3.20;;;;;;;;;;5054737;28;20279;-65
2023/09/29 07:14:10;;;;;;;5.00;3.10;;;;;;;;;;5082334;28;20184;-65
2023/09/29 07:16:35;;;;;;;6.03;3.20;;;;;;;;;;5081420;28;20514;-64
2023/09/29 07:19:01;;;;;;;9.68;3.33;;;;;;;;;;5073141;28;20275;-64
2023/09/29 07:21:26;;;;;;;5.40;2.85;;;;;;;;;;5074322;28;20222;-66
2023/09/29 07:23:52;;;;;;;12.10;2.97;;;;;;;;;;5077946;28;20575;-63
2023/09/29 07:26:18;;;;;;;5.60;3.08;;;;;;;;;;5071473;28;20437;-64
2023/09/29 07:28:44;;;;;;;6.60;3.30;;;;;;;;;;5079292;28;20195;-64
2023/09/29 07:31:10;;;;;;;5.95;2.97;;;;;;;;;;5083743;28;20270;-64
2023/09/29 07:33:35;;;;;;;7.05;3.25;;;;;;;;;;5083750;28;20287;-64
2023/09/29 07:36:00;;;;;;;4.80;3.13;;;;;;;;;;5089122;28;20211;-64
2023/09/29 07:38:26;;;;;;;8.35;3.47;;;;;;;;;;5092859;28;20589;-65
2023/09/29 07:40:51;;;;;;;8.23;3.42;;;;;;;;;;5083136;28;20204;-64
2023/09/29 07:43:16;;;;;;;6.15;3.72;;;;;;;;;;5096474;28;20203;-64
2023/09/29 07:45:42;;;;;;;9.77;4.07;;;;;;;;;;5086273;28;20196;-64
2023/09/29 07:48:07;;;;;;;13.88;3.75;;;;;;;;;;5088244;28;20196;-64
2023/09/29 07:50:33;;;;;;;9.30;3.80;;;;;;;;;;5083176;28;20651;-64
2023/09/29 07:52:59;;;;;;;8.15;3.90;;;;;;;;;;5081821;28;20180;-64
2023/09/29 07:55:25;;;;;;;6.65;3.80;;;;;;;;;;5084696;28;20263;-64
2023/09/29 07:57:51;;;;;;;8.93;4.32;;;;;;;;;;5071614;28;20265;-64
2023/09/29 08:00:16;;;;;;;5.50;3.67;;;;;;;;;;5074168;28;20219;-64
2023/09/29 08:02:43;;;;;;;9.15;3.75;;;;;;;;;;5069698;28;20281;-64
2023/09/29 08:05:12;;;;;;;5.95;3.75;;;;;;;;;;5094477;28;20226;-65
2023/09/29 08:07:37;;;;;;;8.27;4.20;;;;;;;;;;5090091;28;20261;-65
2023/09/29 08:10:03;;;;;;;7.72;4.18;;;;;;;;;;5086681;28;20219;-64
2023/09/29 08:12:29;;;;;;;12.55;4.53;;;;;;;;;;5083654;28;20226;-65
2023/09/29 08:14:54;;;;;;;8.38;4.22;;;;;;;;;;5053178;28;20199;-64
2023/09/29 08:17:19;;;;;;;7.15;4.15;;;;;;;;;;5078531;28;20189;-63
2023/09/29 08:19:45;;;;;;;8.50;4.35;;;;;;;;;;5092268;28;20192;-64
2023/09/29 08:22:11;;;;;;;6.90;3.97;;;;;;;;;;5081521;28;20273;-64
2023/09/29 08:24:36;;;;;;;7.55;4.30;;;;;;;;;;5086933;28;20213;-65
2023/09/29 08:27:02;;;;;;;7.38;4.18;;;;;;;;;;5083934;28;20193;-65
2023/09/29 08:29:28;;;;;;;11.30;4.20;;;;;;;;;;5076037;28;20192;-64
2023/09/29 08:31:54;;;;;;;8.18;4.65;;;;;;;;;;5079798;28;20271;-65
2023/09/29 08:34:19;;;;;;;6.72;4.38;;;;;;;;;;5083427;28;20203;-64
2023/09/29 08:36:45;;;;;;;9.43;4.70;;;;;;;;;;5064135;28;20195;-64
2023/09/29 08:39:10;;;;;;;6.57;4.00;;;;;;;;;;5097091;28;20225;-64
2023/09/29 08:41:40;;;;;;;9.18;3.95;;;;;;;;;;5088017;28;20212;-64
2023/09/29 08:44:08;;;;;;;9.85;4.45;;;;;;;;;;5085648;28;20266;-64
2023/09/29 08:46:35;;;;;;;8.43;4.57;;;;;;;;;;5074358;28;20503;-64
2023/09/29 08:49:03;;;;;;;8.32;4.55;;;;;;;;;;5099844;28;20180;-64
2023/09/29 08:51:31;;;;;;;7.07;4.80;;;;;;;;;;5076972;28;20271;-63
2023/09/29 08:53:58;;;;;;;7.85;4.07;;;;;;;;;;5081618;28;20179;-63
2023/09/29 08:56:24;;;;;;;10.65;4.25;;;;;;;;;;5094089;28;20642;-64
2023/09/29 08:58:49;;;;;;;6.65;3.70;;;;;;;;;;5061837;28;20189;-64
2023/09/29 09:01:15;;;;;;;6.32;3.72;;;;;;;;;;5085579;28;20208;-64
2023/09/29 09:03:40;;;;;;;7.70;4.07;;;;;;;;;;5081553;28;20285;-64
2023/09/29 09:06:23;;;;;;;8.57;4.40;;;;;;;;;;5087448;28;20689;-64
2023/09/29 09:08:51;;;;;;;8.82;4.40;;;;;;;;;;5086030;28;20196;-64
2023/09/29 09:11:17;;;;;;;8.02;4.10;;;;;;;;;;5089797;28;20188;-64
2023/09/29 09:13:43;;;;;;;7.78;4.20;;;;;;;;;;5087209;28;20180;-64
2023/09/29 09:16:09;;;;;;;16.58;4.55;;;;;;;;;;5081027;28;20184;-64
2023/09/29 09:18:36;;;;;;;5.78;3.65;;;;;;;;;;5085212;28;20529;-65
2023/09/29 09:21:01;;;;;;;8.68;3.72;;;;;;;;;;5087421;28;20677;-64
2023/09/29 09:23:37;;;;;;;8.27;3.80;;;;;;;;;;5086843;28;20208;-65
2023/09/29 09:26:11;;;;;;;5.40;3.70;;;;;;;;;;5078989;28;20336;-64
2023/09/29 09:28:36;;;;;;;7.93;3.63;;;;;;;;;;5088313;28;20192;-65
2023/09/29 09:31:02;;;;;;;9.10;3.42;;;;;;;;;;5084656;28;20528;-63
2023/09/29 09:33:28;;;;;;;6.55;3.15;;;;;;;;;;5080542;28;20189;-64
2023/09/29 09:36:06;;;;;;;7.97;3.13;;;;;;;;;;5058843;28;20236;-64
2023/09/29 09:38:33;;;;;;;4.93;3.30;;;;;;;;;;5088197;28;20244;-64
2023/09/29 09:41:00;;;;;;;6.60;3.53;;;;;;;;;;5073471;28;21846;-64
2023/09/29 09:43:26;;;;;;;5.32;3.40;;;;;;;;;;5090069;28;20208;-64
2023/09/29 09:45:56;;;;;;;7.65;3.35;;;;;;;;;;5092020;28;20188;-64
2023/09/29 09:48:24;;;;;;;6.28;3.65;;;;;;;;;;5088557;28;20246;-64
2023/09/29 09:50:52;;;;;;;8.98;3.88;;;;;;;;;;5084708;28;20256;-64
2023/09/29 09:53:20;;;;;;;6.57;2.90;;;;;;;;;;5083548;28;20252;-64
2023/09/29 09:55:59;;;;;;;6.22;3.30;;;;;;;;;;5102813;28;20277;-64
2023/09/29 09:58:25;;;;;;;7.88;3.15;;;;;;;;;;5092304;28;20188;-63
2023/09/29 10:00:55;;;;;;;8.98;3.00;;;;;;;;;;5089300;28;20203;-64
2023/09/29 10:03:21;;;;;;;9.57;2.85;;;;;;;;;;5098300;28;20570;-63
2023/09/29 10:05:52;;;;;;;5.18;3.15;;;;;;;;;;5082206;28;20204;-65
2023/09/29 10:08:31;;;;;;;6.93;3.25;;;;;;;;;;5088341;28;20235;-65
2023/09/29 10:11:15;;;;;;;8.18;2.92;;;;;;;;;;5083346;28;20191;-65
2023/09/29 10:13:44;;;;;;;5.93;2.83;;;;;;;;;;5075570;28;20192;-64
2023/09/29 10:16:21;;;;;;;8.43;3.17;;;;;;;;;;5079929;28;20180;-64
2023/09/29 10:19:12;;;;;;;6.63;3.00;;;;;;;;;;5088429;28;20187;-64
2023/09/29 10:21:43;;;;;;;5.07;2.60;;;;;;;;;;5081118;28;20208;-64
2023/09/29 10:24:11;;;;;;;6.80;3.08;;;;;;;;;;5090680;28;20574;-64
2023/09/29 10:26:46;;;;;;;4.70;2.83;;;;;;;;;;5076059;28;20184;-64
2023/09/29 10:29:25;;;;;;;5.78;3.00;;;;;;;;;;5081698;28;20187;-64
2023/09/29 10:31:52;;;;;;;7.47;3.22;;;;;;;;;;5088146;28;20207;-65
2023/09/29 10:34:22;;;;;;;6.95;3.17;;;;;;;;;;5070003;28;20260;-64
2023/09/29 10:36:55;;;;;;;4.57;3.10;;;;;;;;;;5082593;28;20638;-64
2023/09/29 10:39:26;;;;;;;5.97;3.25;;;;;;;;;;5097176;28;20668;-64
2023/09/29 10:41:58;;;;;;;7.07;3.20;;;;;;;;;;5080315;28;20607;-64
2023/09/29 10:44:26;;;;;;;7.28;3.13;;;;;;;;;;5081707;28;20184;-64
2023/09/29 10:46:52;;;;;;;6.60;3.28;;;;;;;;;;5080294;28;20597;-64
2023/09/29 10:49:17;;;;;;;5.13;2.80;;;;;;;;;;5072616;28;20201;-64
2023/09/29 10:51:43;;;;;;;5.65;2.65;;;;;;;;;;5088194;28;20657;-64
2023/09/29 10:54:08;;;;;;;6.53;2.70;;;;;;;;;;5086556;28;20207;-64
2023/09/29 10:56:35;;;;;;;7.38;2.88;;;;;;;;;;5087321;28;20192;-65
2023/09/29 10:59:06;;;;;;;8.15;3.00;;;;;;;;;;5070158;28;20196;-65
2023/09/29 11:01:33;;;;;;;9.38;2.80;;;;;;;;;;5084442;28;20338;-66
2023/09/29 11:04:10;;;;;;;8.93;3.22;;;;;;;;;;5075897;28;20240;-65
2023/09/29 11:06:51;;;;;;;9.55;3.00;;;;;;;;;;5083540;28;20666;-64
2023/09/29 11:09:19;;;;;;;5.43;3.03;;;;;;;;;;5072346;28;20278;-65
2023/09/29 11:11:45;;;;;;;8.00;3.08;;;;;;;;;;5089128;28;20278;-64
2023/09/29 11:14:11;;;;;;;8.23;2.70;;;;;;;;;;5075545;28;20275;-64
2023/09/29 11:16:36;;;;;;;5.47;2.90;;;;;;;;;;5072695;28;20269;-64
2023/09/29 11:19:12;;;;;;;8.00;2.70;;;;;;;;;;5085857;28;20188;-65
2023/09/29 11:21:40;;;;;;;8.95;2.60;;;;;;;;;;5077939;28;20240;-64
2023/09/29 11:24:10;;;;;;;4.82;2.85;;;;;;;;;;5088706;28;20199;-65
2023/09/29 11:26:46;;;;;;;5.15;2.47;;;;;;;;;;5082977;28;20191;-65
2023/09/29 11:29:27;;;;;;;5.72;2.70;;;;;;;;;;5060096;28;20524;-64
2023/09/29 11:31:53;;;;;;;5.90;2.90;;;;;;;;;;5085677;28;20191;-67
2023/09/29 11:34:19;;;;;;;6.25;2.80;;;;;;;;;;5088185;28;20269;-64
2023/09/29 11:36:45;;;;;;;6.07;2.63;;;;;;;;;;5085699;28;20264;-64
2023/09/29 11:39:16;;;;;;;5.43;2.65;;;;;;;;;;5088070;28;20664;-65
2023/09/29 11:41:42;;;;;;;6.65;2.50;;;;;;;;;;5092014;28;20199;-64
2023/09/29 11:44:07;;;;;;;5.72;2.50;;;;;;;;;;5089076;28;20650;-66
2023/09/29 11:46:32;;;;;;;9.10;2.78;;;;;;;;;;5085253;28;20271;-65
2023/09/29 11:48:58;;;;;;;4.72;2.63;;;;;;;;;;5095783;28;20210;-64
2023/09/29 11:51:24;;;;;;;5.07;2.65;;;;;;;;;;5082388;28;20196;-64
2023/09/29 11:53:50;;;;;;;6.18;2.53;;;;;;;;;;5068556;28;20276;-64
2023/09/29 11:56:16;;;;;;;5.88;2.55;;;;;;;;;;5081781;28;20222;-65
2023/09/29 11:58:41;;;;;;;6.10;2.85;;;;;;;;;;5078483;28;20250;-65
2023/09/29 12:01:08;;;;;;;6.05;2.55;;;;;;;;;;5087388;28;20245;-63
2023/09/29 12:03:34;;;;;;;6.10;2.70;;;;;;;;;;5077002;28;20809;-64
2023/09/29 12:06:02;;;;;;;7.20;2.95;;;;;;;;;;5074147;28;20187;-64
2023/09/29 12:08:28;;;;;;;6.65;3.17;;;;;;;;;;5072487;28;20209;-64
2023/09/29 12:10:55;;;;;;;6.45;2.95;;;;;;;;;;5074241;28;20403;-64
2023/09/29 12:13:20;;;;;;;7.78;2.90;;;;;;;;;;5080531;28;20259;-64
2023/09/29 12:15:46;;;;;;;4.88;2.55;;;;;;;;;;5069478;28;20267;-64
2023/09/29 12:18:12;;;;;;;9.82;3.10;;;;;;;;;;5073673;28;20204;-65
2023/09/29 12:20:41;;;;;;;4.95;3.33;;;;;;;;;;5074134;28;20226;-65
2023/09/29 12:23:08;;;;;;;5.07;2.65;;;;;;;;;;5077982;28;20290;-64
2023/09/29 12:25:35;;;;;;;9.88;3.42;;;;;;;;;;5077673;28;20783;-64
2023/09/29 12:28:01;;;;;;;7.65;3.70;;;;;;;;;;5087489;28;20183;-64
2023/09/29 12:30:27;;;;;;;9.30;3.92;;;;;;;;;;5084757;28;20835;-63
2023/09/29 12:32:53;;;;;;;10.52;3.97;;;;;;;;;;5078514;28;20192;-63
2023/09/29 12:35:18;;;;;;;11.02;3.95;;;;;;;;;;5081814;28;20298;-64
2023/09/29 12:37:44;;;;;;;6.53;3.50;;;;;;;;;;5093357;28;20191;-64
2023/09/29 12:40:15;;;;;;;6.97;3.50;;;;;;;;;;5090572;28;20615;-64
2023/09/29 12:42:46;;;;;;;9.23;4.13;;;;;;;;;;5086283;28;20234;-64
2023/09/29 12:45:17;;;;;;;5.25;3.05;;;;;;;;;;5082823;28;20188;-64
2023/09/29 12:47:43;;;;;;;6.80;3.20;;;;;;;;;;5085932;28;20223;-64
2023/09/29 12:50:09;;;;;;;6.43;3.55;;;;;;;;;;5089773;28;20215;-64
2023/09/29 12:52:35;;;;;;;6.13;3.00;;;;;;;;;;5093516;28;20188;-64
2023/09/29 12:55:00;;;;;;;7.35;2.83;;;;;;;;;;5068761;28;20188;-64
2023/09/29 12:57:25;;;;;;;7.05;3.33;;;;;;;;;;5084094;28;20619;-64
2023/09/29 12:59:51;;;;;;;6.63;3.10;;;;;;;;;;5083179;28;20239;-65
2023/09/29 13:02:17;;;;;;;8.40;3.88;;;;;;;;;;5085685;28;20258;-69
2023/09/29 13:04:43;;;;;;;7.40;3.30;;;;;;;;;;5084716;28;20240;-69
2023/09/29 13:07:11;;;;;;;7.70;4.18;;;;;;;;;;5089414;28;20196;-67
2023/09/29 13:09:37;;;;;;;7.00;4.78;;;;;;;;;;5083702;28;20181;-67
2023/09/29 13:12:04;;;;;;;8.02;5.13;;;;;;;;;;5083174;28;20234;-67
2023/09/29 13:14:30;;;;;;;6.35;5.70;;;;;;;;;;5084584;28;20176;-68
2023/09/29 13:16:55;;;;;;;6.90;5.68;;;;;;;;;;5084427;28;20195;-70
2023/09/29 13:19:21;;;;;;;7.55;5.70;;;;;;;;;;5088402;28;20574;-68
2023/09/29 13:21:46;;;;;;;7.35;4.72;;;;;;;;;;5089211;28;20252;-71
2023/09/29 13:24:12;;;;;;;8.27;4.80;;;;;;;;;;5070215;28;20184;-68
2023/09/29 13:26:41;;;;;;;10.40;5.32;;;;;;;;;;5073887;28;20203;-69
2023/09/29 13:29:09;;;;;;;7.20;5.53;;;;;;;;;;5088046;28;20188;-69
2023/09/29 13:31:36;;;;;;;6.63;4.57;;;;;;;;;;5090134;28;20278;-68
2023/09/29 13:34:03;;;;;;;4.30;3.90;;;;;;;;;;5080272;28;20196;-68
2023/09/29 13:36:28;;;;;;;4.53;3.22;;;;;;;;;;5085202;28;20264;-66
2023/09/29 13:38:54;;;;;;;4.75;2.97;;;;;;;;;;5088167;28;20220;-66
2023/09/29 13:41:19;;;;;;;6.60;2.88;;;;;;;;;;5071262;28;20245;-65
2023/09/29 13:43:44;;;;;;;4.25;1.88;;;;;;;;;;5085490;28;20225;-67
2023/09/29 13:46:10;;;;;;;3.60;1.60;;;;;;;;;;5090919;28;20180;-66
2023/09/29 13:48:36;;;;;;;3.10;0.95;;;;;;;;;;5091226;28;20184;-65
2023/09/29 13:51:06;;;;;;;2.05;0.90;;;;;;;;;;5089498;28;20238;-65
2023/09/29 13:53:32;;;;;;;0.70;0.70;;;;;;;;;;5086141;28;20276;-65
2023/09/29 13:55:58;;;;;;;1.67;0.60;;;;;;;;;;5093846;28;20192;-65
2023/09/29 13:58:24;;;;;;;0.82;0.60;;;;;;;;;;5083285;28;20192;-66
2023/09/29 14:00:51;;;;;;;2.10;0.82;;;;;;;;;;5075297;28;20243;-65
2023/09/29 14:03:17;;;;;;;1.70;0.70;;;;;;;;;;5086045;28;20230;-65
2023/09/29 14:05:42;;;;;;;1.42;0.73;;;;;;;;;;5074929;28;20197;-65
2023/09/29 14:08:08;;;;;;;1.92;1.08;;;;;;;;;;5087010;28;20188;-65
2023/09/29 14:10:33;;;;;;;2.00;1.13;;;;;;;;;;5075786;28;20677;-65
2023/09/29 14:12:59;;;;;;;2.78;1.33;;;;;;;;;;5079218;28;20191;-66
2023/09/29 14:15:26;;;;;;;2.70;1.10;;;;;;;;;;5083983;28;20196;-65
2023/09/29 14:17:51;;;;;;;5.05;1.40;;;;;;;;;;5081322;28;20194;-66
2023/09/29 14:20:17;;;;;;;2.25;1.33;;;;;;;;;;5089096;28;20718;-65
2023/09/29 14:22:42;;;;;;;2.55;1.27;;;;;;;;;;5089476;28;20296;-65
2023/09/29 14:25:08;;;;;;;1.67;1.10;;;;;;;;;;5083816;28;20215;-66
2023/09/29 14:27:33;;;;;;;5.85;1.30;;;;;;;;;;5074922;28;20283;-65
2023/09/29 14:29:58;;;;;;;3.00;0.90;;;;;;;;;;5080731;28;20198;-65